LFPT 261500Z AUTO 01013KT 9999 FEW047 BKN054 21/10 Q1018

ElémentsDécodage
LFPT Station météo située sur l'aérodrome de PONTOISE Cormeille-en-Vexin
261500Z émis le 26 du mois à 15h00 UTC
AUTO Bulletin édité par un automate
01013KT vent du 010°, 13 noeuds
9999 visibilité horizontale supérieure à 10 Km
FEW047 nuages rares (1/8 à 2/8) à 4700 pieds
BKN054 nuages morcelés (5/8 à 7/8) à 5400 pieds
21/10 température 21°C, point de rosée 10°C
 soit une humidité relative de 49%
Q1018 la pression au niveau de la mer (QNH) est de 1018 hPa